Yue Zhu Hai 4038 — 4038 — position and weather

sailwx.info

Track history (hours):
 
Tides and Currents Weather Stations Pressure Air Temp Water Temp Dewpoint Dewpoint Depression Visibility Wind Speed Wind Dir Waves Ship Positions

Yue Zhu Hai 4038

Last reported at 2014-Sep-21 10:31 UTC. Time now 2014-Sep-24 02:25 UTC.
Position N 22°16' E 113°37'.

Length 21 m.

Type: Fishing. MMSI: 412478675.

Date/timePositionNaut miles runAvg speedWind from/ knotsBaromVisibWave heightAir tempDewpointWater temp
2014-Sep-21 10:31N 22°16' E 113°37'10 9.7
2014-Sep-21 09:32N 22°10' E 113°45'4 1.4
2014-Sep-21 06:33N 22°08' E 113°48'12 0.8
2014-Sep-20 14:31N 22°15' E 113°38'9 8.8
2014-Sep-20 13:33N 22°10' E 113°46'5 1.2
2014-Sep-20 09:18N 22°07' E 113°50'8 9.5
2014-Sep-20 08:29N 22°11' E 113°43'4 1.7
2014-Sep-20 06:21N 22°15' E 113°41'6 3.3
2014-Sep-20 04:33N 22°13' E 113°47'11 5.0
2014-Sep-20 02:23N 22°17' E 113°36'6 5.9
2014-Sep-20 01:21N 22°11' E 113°34'2 0.1
2014-Sep-19 04:13N 22°11' E 113°32'  
2014-Sep-12 02:10N 22°13' E 113°36'4 0.3
2014-Sep-11 14:30N 22°17' E 113°35'8 8.7
2014-Sep-11 13:33N 22°11' E 113°41'7 6.1
2014-Sep-11 12:19N 22°04' E 113°44'7 8.9
2014-Sep-11 11:33N 22°11' E 113°42'  
Track history (hours):
 
Tides and Currents Weather Stations Pressure Air Temp Water Temp Dewpoint Dewpoint Depression Visibility Wind Speed Wind Dir Waves Ship Positions

Yue Zhu Hai 4038

Last reported at 2014-Sep-21 10:31 UTC. Time now 2014-Sep-24 02:25 UTC.
Position N 22°16' E 113°37'.

Length 21 m.

Type: Fishing. MMSI: 412478675.

Date/timePositionNaut miles runAvg speedWind from/ knotsBaromVisibWave heightAir tempDewpointWater temp
2014-Sep-21 10:31N 22°16' E 113°37'10 9.7
2014-Sep-21 09:32N 22°10' E 113°45'4 1.4
2014-Sep-21 06:33N 22°08' E 113°48'12 0.8
2014-Sep-20 14:31N 22°15' E 113°38'9 8.8
2014-Sep-20 13:33N 22°10' E 113°46'5 1.2
2014-Sep-20 09:18N 22°07' E 113°50'8 9.5
2014-Sep-20 08:29N 22°11' E 113°43'4 1.7
2014-Sep-20 06:21N 22°15' E 113°41'6 3.3
2014-Sep-20 04:33N 22°13' E 113°47'11 5.0
2014-Sep-20 02:23N 22°17' E 113°36'6 5.9
2014-Sep-20 01:21N 22°11' E 113°34'2 0.1
2014-Sep-19 04:13N 22°11' E 113°32'  
2014-Sep-12 02:10N 22°13' E 113°36'4 0.3
2014-Sep-11 14:30N 22°17' E 113°35'8 8.7
2014-Sep-11 13:33N 22°11' E 113°41'7 6.1
2014-Sep-11 12:19N 22°04' E 113°44'7 8.9
2014-Sep-11 11:33N 22°11' E 113°42'  

Dump ship's entire track history